createdAt,value
2019-03-16T00:00:06.430Z,0
2019-03-16T00:01:06.398Z,0
2019-03-16T00:02:06.399Z,0
2019-03-16T00:03:06.387Z,0
2019-03-16T00:04:06.336Z,0
2019-03-16T00:05:06.314Z,0
2019-03-16T00:06:06.296Z,0
2019-03-16T00:07:06.280Z,0
2019-03-16T00:08:06.253Z,0
2019-03-16T00:09:06.225Z,0
2019-03-16T00:10:06.232Z,0
2019-03-16T00:11:06.187Z,0
2019-03-16T00:12:06.697Z,0
2019-03-16T00:13:06.157Z,0
2019-03-16T00:14:06.107Z,0
2019-03-16T00:15:06.104Z,0
2019-03-16T00:16:06.079Z,0
2019-03-16T00:17:06.064Z,0
2019-03-16T00:18:06.023Z,0
2019-03-16T00:19:05.794Z,0
2019-03-16T00:20:06.006Z,0
2019-03-16T00:21:05.969Z,0
2019-03-16T00:22:05.956Z,0
2019-03-16T00:23:06.027Z,0
2019-03-16T00:24:05.994Z,0
2019-03-16T00:25:05.995Z,0
2019-03-16T00:26:05.883Z,0
2019-03-16T00:27:05.830Z,0
2019-03-16T00:28:05.827Z,0
2019-03-16T00:29:05.887Z,0
2019-03-16T00:30:05.781Z,0
2019-03-16T00:31:05.746Z,0
2019-03-16T00:32:17.592Z,0
2019-03-16T00:33:05.708Z,0
2019-03-16T00:34:05.703Z,0
2019-03-16T00:35:05.666Z,0
2019-03-16T00:36:05.669Z,0
2019-03-16T00:37:05.620Z,0
2019-03-16T00:38:05.609Z,0
2019-03-16T00:39:05.645Z,0
2019-03-16T00:40:05.557Z,0
2019-03-16T00:41:05.563Z,0
2019-03-16T00:42:05.508Z,0
2019-03-16T00:43:05.520Z,0
2019-03-16T00:44:05.343Z,0
2019-03-16T00:45:05.462Z,0
2019-03-16T00:46:05.423Z,0
2019-03-16T00:47:05.451Z,0
2019-03-16T00:48:05.400Z,0
2019-03-16T00:49:05.413Z,0
2019-03-16T00:50:05.327Z,0
2019-03-16T00:51:05.327Z,0
2019-03-16T00:52:05.301Z,0
2019-03-16T00:53:05.284Z,0
2019-03-16T00:54:05.023Z,0
2019-03-16T00:55:05.306Z,0
2019-03-16T00:56:05.235Z,0
2019-03-16T00:57:05.202Z,0
2019-03-16T00:58:05.186Z,0
2019-03-16T00:59:05.144Z,0
2019-03-16T01:00:05.161Z,0
2019-03-16T01:01:05.123Z,0
2019-03-16T01:02:05.096Z,0
2019-03-16T01:03:05.060Z,0
2019-03-16T01:04:05.046Z,0
2019-03-16T01:05:05.228Z,0
2019-03-16T01:06:05.016Z,0
2019-03-16T01:07:04.985Z,0
2019-03-16T01:08:04.964Z,0
2019-03-16T01:09:04.934Z,0
2019-03-16T01:10:05.138Z,0
2019-03-16T01:11:04.911Z,0
2019-03-16T01:12:04.872Z,0
2019-03-16T01:13:04.934Z,0
2019-03-16T01:14:04.827Z,0
2019-03-16T01:15:04.820Z,0
2019-03-16T01:16:04.786Z,0
2019-03-16T01:17:04.770Z,0
2019-03-16T01:18:04.738Z,0
2019-03-16T01:19:04.733Z,0
2019-03-16T01:20:04.705Z,0
2019-03-16T01:21:04.692Z,0
2019-03-16T01:22:04.648Z,0
2019-03-16T01:23:04.737Z,0
2019-03-16T01:24:04.625Z,0
2019-03-16T01:25:04.600Z,0
2019-03-16T01:26:04.619Z,0
2019-03-16T01:27:04.548Z,0
2019-03-16T01:28:04.533Z,0
2019-03-16T01:29:04.535Z,0
2019-03-16T01:30:04.495Z,0
2019-03-16T01:31:04.458Z,0
2019-03-16T01:32:04.449Z,0
2019-03-16T01:33:04.415Z,0
2019-03-16T01:34:04.407Z,0
2019-03-16T01:35:04.370Z,0
2019-03-16T01:36:04.360Z,0
2019-03-16T01:37:04.330Z,0
2019-03-16T01:38:04.409Z,0
2019-03-16T01:39:04.307Z,0
2019-03-16T01:40:04.271Z,0
2019-03-16T01:41:04.249Z,0
2019-03-16T01:42:04.228Z,0
2019-03-16T01:43:04.213Z,0
2019-03-16T01:44:04.191Z,0
2019-03-16T01:45:04.193Z,0
2019-03-16T01:46:04.131Z,0
2019-03-16T01:47:04.146Z,0
2019-03-16T01:48:04.100Z,0
2019-03-16T01:49:04.096Z,0
2019-03-16T01:50:04.103Z,0
2019-03-16T01:51:04.049Z,0
2019-03-16T01:52:04.016Z,0
2019-03-16T01:53:04.014Z,0
2019-03-16T01:54:03.968Z,0
2019-03-16T01:55:03.952Z,0
2019-03-16T01:56:03.930Z,0
2019-03-16T01:57:03.913Z,0
2019-03-16T01:58:03.792Z,0
2019-03-16T01:59:03.856Z,0
2019-03-16T02:00:03.855Z,0
2019-03-16T02:01:03.825Z,0
2019-03-16T02:02:03.837Z,0
2019-03-16T02:03:03.784Z,0
2019-03-16T02:04:03.758Z,0
2019-03-16T02:05:03.737Z,0
2019-03-16T02:06:03.730Z,0
2019-03-16T02:07:03.687Z,0
2019-03-16T02:08:03.667Z,0
2019-03-16T02:09:03.649Z,0
2019-03-16T02:10:03.652Z,0
2019-03-16T02:11:03.615Z,0
2019-03-16T02:12:05.277Z,0
2019-03-16T02:13:03.563Z,0
2019-03-16T02:14:03.563Z,0
2019-03-16T02:15:03.531Z,0
2019-03-16T02:16:17.497Z,0
2019-03-16T02:17:03.474Z,0
2019-03-16T02:18:03.451Z,0
2019-03-16T02:19:03.448Z,0
2019-03-16T02:20:03.413Z,0
2019-03-16T02:21:03.404Z,0
2019-03-16T02:22:03.366Z,0
2019-03-16T02:23:03.363Z,0
2019-03-16T02:24:03.332Z,0
2019-03-16T02:25:03.419Z,0
2019-03-16T02:26:03.276Z,0
2019-03-16T02:27:03.021Z,0
2019-03-16T02:28:03.258Z,0
2019-03-16T02:29:03.223Z,0
2019-03-16T02:30:03.024Z,0
2019-03-16T02:31:03.182Z,0
2019-03-16T02:32:03.202Z,0
2019-03-16T02:33:19.373Z,0
2019-03-16T02:34:03.145Z,0
2019-03-16T02:35:03.194Z,0
2019-03-16T02:36:03.085Z,0
2019-03-16T02:37:03.046Z,0
2019-03-16T02:38:03.082Z,0
2019-03-16T02:39:02.811Z,0
2019-03-16T02:40:03.085Z,0
2019-03-16T02:41:02.962Z,0
2019-03-16T02:42:02.971Z,0
2019-03-16T02:43:02.969Z,0
2019-03-16T02:44:02.990Z,0
2019-03-16T02:45:02.876Z,0
2019-03-16T02:46:02.642Z,0
2019-03-16T02:47:02.943Z,0
2019-03-16T02:48:02.833Z,0
2019-03-16T02:49:02.813Z,0
2019-03-16T02:50:03.069Z,0
2019-03-16T02:51:02.787Z,0
2019-03-16T02:52:02.749Z,0
2019-03-16T02:53:02.725Z,0
2019-03-16T02:54:02.683Z,0
2019-03-16T02:55:02.998Z,0
2019-03-16T02:56:02.648Z,0
2019-03-16T02:57:02.704Z,0
2019-03-16T02:58:02.358Z,0
2019-03-16T02:59:02.781Z,0
2019-03-16T03:00:02.880Z,0
2019-03-16T03:01:02.556Z,0
2019-03-16T03:02:02.530Z,0
2019-03-16T03:03:02.669Z,0
2019-03-16T03:04:02.478Z,0
2019-03-16T03:05:02.975Z,0
2019-03-16T03:06:02.455Z,0
2019-03-16T03:07:02.428Z,0
2019-03-16T03:08:02.394Z,0
2019-03-16T03:09:02.377Z,0
2019-03-16T03:10:02.339Z,0
2019-03-16T03:11:02.363Z,0
2019-03-16T03:12:02.299Z,0
2019-03-16T03:13:02.287Z,0
2019-03-16T03:14:02.257Z,0
2019-03-16T03:15:02.245Z,0
2019-03-16T03:16:02.217Z,0
2019-03-16T03:17:02.275Z,0
2019-03-16T03:18:02.176Z,0
2019-03-16T03:19:02.151Z,0
2019-03-16T03:20:01.931Z,0
2019-03-16T03:21:02.125Z,0
2019-03-16T03:22:02.115Z,0
2019-03-16T03:23:02.063Z,0
2019-03-16T03:24:02.053Z,0
2019-03-16T03:25:02.045Z,0
2019-03-16T03:26:02.016Z,0
2019-03-16T03:27:01.742Z,0
2019-03-16T03:28:01.981Z,0
2019-03-16T03:29:02.031Z,0
2019-03-16T03:30:04.634Z,0
2019-03-16T03:31:01.940Z,0
2019-03-16T03:32:01.891Z,0
2019-03-16T03:33:02.187Z,0
2019-03-16T03:34:09.359Z,0
2019-03-16T03:35:01.811Z,0
2019-03-16T03:36:01.787Z,0
2019-03-16T03:37:01.547Z,0
2019-03-16T03:38:01.737Z,0
2019-03-16T03:39:01.785Z,0
2019-03-16T03:40:01.741Z,0
2019-03-16T03:41:06.420Z,0
2019-03-16T03:42:01.793Z,0
2019-03-16T03:43:01.663Z,0
2019-03-16T03:44:01.623Z,0
2019-03-16T03:45:01.613Z,0
2019-03-16T03:46:01.573Z,0
2019-03-16T03:47:01.555Z,0
2019-03-16T03:48:01.684Z,0
2019-03-16T03:49:01.520Z,0
2019-03-16T03:50:01.487Z,0
2019-03-16T03:51:01.478Z,0
2019-03-16T03:52:01.492Z,0
2019-03-16T03:53:01.425Z,0
2019-03-16T03:54:01.431Z,0
2019-03-16T03:55:01.372Z,0
2019-03-16T03:56:01.385Z,0
2019-03-16T03:57:01.344Z,0
2019-03-16T03:58:01.426Z,0
2019-03-16T03:59:01.296Z,0
2019-03-16T04:00:01.301Z,0
2019-03-16T04:01:01.267Z,0
2019-03-16T04:02:01.247Z,0
2019-03-16T04:03:01.244Z,0
2019-03-16T04:04:19.048Z,0
2019-03-16T04:05:01.168Z,0
2019-03-16T04:06:01.149Z,0
2019-03-16T04:07:01.135Z,0
2019-03-16T04:08:01.120Z,0
2019-03-16T04:09:01.122Z,0
2019-03-16T04:10:01.057Z,0
2019-03-16T04:11:01.045Z,0
2019-03-16T04:12:01.029Z,0
2019-03-16T04:13:01.015Z,0
2019-03-16T04:14:00.955Z,0
2019-03-16T04:15:00.961Z,0
2019-03-16T04:16:01.002Z,0
2019-03-16T04:17:00.961Z,0
2019-03-16T04:18:00.875Z,0
2019-03-16T04:19:00.881Z,0
2019-03-16T04:20:00.892Z,0
2019-03-16T04:21:00.835Z,0
2019-03-16T04:22:00.798Z,0
2019-03-16T04:23:00.769Z,0
2019-03-16T04:24:00.815Z,0
2019-03-16T04:25:00.739Z,0
2019-03-16T04:26:00.746Z,0
2019-03-16T04:27:17.331Z,0
2019-03-16T04:28:00.675Z,0
2019-03-16T04:29:00.658Z,0
2019-03-16T04:30:00.656Z,0
2019-03-16T04:31:00.652Z,0
2019-03-16T04:32:00.581Z,0
2019-03-16T04:33:00.559Z,0
2019-03-16T04:34:00.650Z,0
2019-03-16T04:35:00.548Z,0
2019-03-16T04:36:00.507Z,0
2019-03-16T04:37:00.472Z,0
2019-03-16T04:38:00.469Z,0
2019-03-16T04:39:00.450Z,0
2019-03-16T04:40:00.443Z,0
2019-03-16T04:41:00.143Z,0
2019-03-16T04:42:00.351Z,0
2019-03-16T04:43:00.352Z,0
2019-03-16T04:44:00.321Z,0
2019-03-16T04:45:00.481Z,0
2019-03-16T04:46:00.291Z,0
2019-03-16T04:47:00.264Z,0
2019-03-16T04:48:00.241Z,0
2019-03-16T04:49:00.291Z,0
2019-03-16T04:50:00.396Z,0
2019-03-16T04:51:00.202Z,0
2019-03-16T04:52:00.148Z,0
2019-03-16T04:53:00.133Z,0
2019-03-16T04:54:00.110Z,0
2019-03-16T04:55:00.094Z,0
2019-03-16T04:56:00.079Z,0
2019-03-16T04:57:00.054Z,0
2019-03-16T04:58:00.011Z,0
2019-03-16T04:59:00.020Z,0
2019-03-16T05:00:00.230Z,0
2019-03-16T05:00:59.965Z,0
2019-03-16T05:01:59.931Z,0
2019-03-16T05:03:00.017Z,0
2019-03-16T05:03:59.894Z,0
2019-03-16T05:04:59.878Z,0
2019-03-16T05:05:59.855Z,0
2019-03-16T05:06:59.830Z,0
2019-03-16T05:07:59.818Z,0
2019-03-16T05:08:59.794Z,0
2019-03-16T05:09:59.760Z,0
2019-03-16T05:10:59.735Z,0
2019-03-16T05:11:59.814Z,0
2019-03-16T05:12:59.701Z,0
2019-03-16T05:13:59.707Z,0
2019-03-16T05:14:59.645Z,0
2019-03-16T05:15:59.643Z,0
2019-03-16T05:16:59.611Z,0
2019-03-16T05:17:59.603Z,0
2019-03-16T05:18:59.564Z,0
2019-03-16T05:19:59.546Z,0
2019-03-16T05:20:59.525Z,0
2019-03-16T05:21:59.514Z,0
2019-03-16T05:22:59.487Z,0
2019-03-16T05:24:02.540Z,0
2019-03-16T05:24:59.435Z,0
2019-03-16T05:25:59.419Z,0
2019-03-16T05:26:59.412Z,0
2019-03-16T05:27:59.374Z,0
2019-03-16T05:28:59.356Z,0
2019-03-16T05:29:59.322Z,0
2019-03-16T05:30:59.324Z,0
2019-03-16T05:31:59.289Z,0
2019-03-16T05:32:59.284Z,0
2019-03-16T05:33:59.250Z,0
2019-03-16T05:35:03.860Z,0
2019-03-16T05:35:59.210Z,0
2019-03-16T05:37:00.892Z,0
2019-03-16T05:37:59.149Z,0
2019-03-16T05:38:59.135Z,0
2019-03-16T05:39:59.118Z,0
2019-03-16T05:40:59.202Z,0
2019-03-16T05:41:59.074Z,0
2019-03-16T05:42:59.049Z,0
2019-03-16T05:43:59.120Z,0
2019-03-16T05:44:59.011Z,0
2019-03-16T05:45:59.000Z,0
2019-03-16T05:46:58.960Z,0
2019-03-16T05:47:58.949Z,0
2019-03-16T05:48:58.922Z,0
2019-03-16T05:49:58.917Z,0
2019-03-16T05:51:02.144Z,4
2019-03-16T05:51:58.859Z,4
2019-03-16T05:52:58.839Z,4
2019-03-16T05:53:58.883Z,4
2019-03-16T05:54:58.798Z,4
2019-03-16T05:55:58.785Z,4
2019-03-16T05:56:58.748Z,0
2019-03-16T05:57:58.727Z,4
2019-03-16T05:58:58.474Z,4
2019-03-16T05:59:58.688Z,4
2019-03-16T06:00:58.664Z,4
2019-03-16T06:01:58.646Z,8
2019-03-16T06:02:58.636Z,4
2019-03-16T06:03:58.605Z,4
2019-03-16T06:05:12.138Z,4
2019-03-16T06:05:58.558Z,4
2019-03-16T06:06:58.305Z,4
2019-03-16T06:07:58.517Z,8
2019-03-16T06:08:58.507Z,8
2019-03-16T06:09:58.461Z,8
2019-03-16T06:10:58.451Z,8
2019-03-16T06:11:58.436Z,12
2019-03-16T06:12:58.415Z,8
2019-03-16T06:13:58.188Z,8
2019-03-16T06:14:58.367Z,12
2019-03-16T06:15:58.345Z,12
2019-03-16T06:16:58.328Z,8
2019-03-16T06:17:58.321Z,12
2019-03-16T06:18:58.267Z,16
2019-03-16T06:19:58.259Z,16
2019-03-16T06:20:57.990Z,16
2019-03-16T06:21:58.247Z,16
2019-03-16T06:22:58.265Z,16
2019-03-16T06:23:58.214Z,16
2019-03-16T06:24:57.996Z,16
2019-03-16T06:25:58.190Z,16
2019-03-16T06:26:58.155Z,16
2019-03-16T06:27:58.155Z,16
2019-03-16T06:28:58.135Z,16
2019-03-16T06:29:57.844Z,20
2019-03-16T06:30:57.815Z,20
2019-03-16T06:31:57.816Z,16
2019-03-16T06:32:57.848Z,16
2019-03-16T06:33:58.100Z,16
2019-03-16T06:34:57.699Z,12
2019-03-16T06:35:57.960Z,20
2019-03-16T06:36:58.094Z,16
2019-03-16T06:37:58.030Z,16
2019-03-16T06:38:57.874Z,20
2019-03-16T06:39:57.922Z,16
2019-03-16T06:40:57.829Z,20
2019-03-16T06:41:57.869Z,24
2019-03-16T06:42:57.876Z,24
2019-03-16T06:43:57.782Z,20
2019-03-16T06:44:57.481Z,24
2019-03-16T06:45:57.698Z,28
2019-03-16T06:46:57.685Z,28
2019-03-16T06:47:59.576Z,24
2019-03-16T06:48:57.398Z,28
2019-03-16T06:49:57.628Z,32
2019-03-16T06:50:57.606Z,40
2019-03-16T06:51:57.575Z,40
2019-03-16T06:52:57.659Z,36
2019-03-16T06:53:57.514Z,36
2019-03-16T06:54:57.561Z,40
2019-03-16T06:55:57.485Z,44
2019-03-16T06:56:57.472Z,40
2019-03-16T06:57:57.433Z,48
2019-03-16T06:59:00.806Z,44
2019-03-16T06:59:57.396Z,48
2019-03-16T07:00:57.429Z,44
2019-03-16T07:01:57.351Z,52
2019-03-16T07:02:57.469Z,48
2019-03-16T07:03:57.222Z,44
2019-03-16T07:04:57.402Z,40
2019-03-16T07:05:57.385Z,48
2019-03-16T07:06:57.243Z,56
2019-03-16T07:07:57.232Z,48
2019-03-16T07:08:57.204Z,44
2019-03-16T07:09:57.201Z,68
2019-03-16T07:10:57.153Z,60
2019-03-16T07:11:57.142Z,84
2019-03-16T07:12:57.119Z,96
2019-03-16T07:13:57.108Z,132
2019-03-16T07:14:57.088Z,144
2019-03-16T07:15:57.056Z,156
2019-03-16T07:17:09.128Z,152
2019-03-16T07:17:57.018Z,136
2019-03-16T07:19:06.008Z,216
2019-03-16T07:19:56.964Z,212
2019-03-16T07:20:56.940Z,168
2019-03-16T07:21:56.914Z,172
2019-03-16T07:22:56.966Z,104
2019-03-16T07:23:56.898Z,112
2019-03-16T07:24:58.819Z,72
2019-03-16T07:25:56.820Z,84
2019-03-16T07:26:56.930Z,92
2019-03-16T07:27:56.796Z,76
2019-03-16T07:28:56.873Z,100
2019-03-16T07:29:56.856Z,104
2019-03-16T07:30:56.644Z,124
2019-03-16T07:31:56.616Z,120
2019-03-16T07:32:56.624Z,92
2019-03-16T07:33:56.811Z,116
2019-03-16T07:34:56.784Z,88
2019-03-16T07:35:56.629Z,84
2019-03-16T07:36:56.599Z,96
2019-03-16T07:37:56.690Z,100
2019-03-16T07:38:56.550Z,148
2019-03-16T07:39:56.538Z,116
2019-03-16T07:40:56.513Z,100
2019-03-16T07:41:56.508Z,104
2019-03-16T07:42:56.467Z,120
2019-03-16T07:43:56.449Z,124
2019-03-16T07:45:09.801Z,148
2019-03-16T07:45:56.437Z,128
2019-03-16T07:46:56.409Z,144
2019-03-16T07:47:56.364Z,132
2019-03-16T07:48:56.340Z,148
2019-03-16T07:49:56.417Z,140
2019-03-16T07:50:56.309Z,176
2019-03-16T07:51:56.277Z,188
2019-03-16T07:52:56.315Z,208
2019-03-16T07:53:55.992Z,212
2019-03-16T07:54:56.221Z,204
2019-03-16T07:55:56.280Z,188
2019-03-16T07:56:56.179Z,184
2019-03-16T07:57:56.140Z,180
2019-03-16T07:58:56.138Z,196
2019-03-16T07:59:56.120Z,228
2019-03-16T08:00:56.091Z,224
2019-03-16T08:01:56.169Z,212
2019-03-16T08:02:56.056Z,208
2019-03-16T08:03:55.810Z,212
2019-03-16T08:04:56.089Z,220
2019-03-16T08:05:55.973Z,216
2019-03-16T08:06:55.971Z,220
2019-03-16T08:07:55.943Z,212
2019-03-16T08:08:55.978Z,160
2019-03-16T08:09:55.905Z,148
2019-03-16T08:10:55.864Z,184
2019-03-16T08:11:55.865Z,216
2019-03-16T08:12:55.829Z,176
2019-03-16T08:13:55.819Z,148
2019-03-16T08:14:55.544Z,136
2019-03-16T08:15:55.762Z,168
2019-03-16T08:16:55.741Z,120
2019-03-16T08:17:55.832Z,188
2019-03-16T08:18:55.797Z,240
2019-03-16T08:19:55.433Z,260
2019-03-16T08:20:55.657Z,236
2019-03-16T08:21:55.644Z,196
2019-03-16T08:22:55.619Z,120
2019-03-16T08:23:58.603Z,188
2019-03-16T08:24:55.566Z,120
2019-03-16T08:25:55.545Z,96
2019-03-16T08:26:55.538Z,88
2019-03-16T08:28:00.892Z,80
2019-03-16T08:28:55.490Z,128
2019-03-16T08:29:55.210Z,124
2019-03-16T08:30:56.774Z,120
2019-03-16T08:31:55.437Z,172
2019-03-16T08:32:55.406Z,144
2019-03-16T08:33:55.371Z,92
2019-03-16T08:34:55.113Z,96
2019-03-16T08:35:55.334Z,108
2019-03-16T08:36:55.320Z,76
2019-03-16T08:37:55.291Z,104
2019-03-16T08:38:55.260Z,140
2019-03-16T08:39:55.246Z,112
2019-03-16T08:40:55.367Z,92
2019-03-16T08:41:55.232Z,76
2019-03-16T08:42:56.341Z,92
2019-03-16T08:43:55.171Z,68
2019-03-16T08:44:55.135Z,92
2019-03-16T08:45:55.128Z,96
2019-03-16T08:46:55.088Z,96
2019-03-16T08:47:55.078Z,120
2019-03-16T08:48:55.150Z,124
2019-03-16T08:49:55.093Z,116
2019-03-16T08:50:55.008Z,104
2019-03-16T08:51:54.986Z,112
2019-03-16T08:52:56.331Z,104
2019-03-16T08:53:54.967Z,116
2019-03-16T08:54:54.934Z,112
2019-03-16T08:55:55.008Z,112
2019-03-16T08:56:54.886Z,96
2019-03-16T08:58:05.516Z,96
2019-03-16T08:58:54.856Z,96
2019-03-16T08:59:54.848Z,88
2019-03-16T09:00:54.819Z,88
2019-03-16T09:01:55.150Z,92
2019-03-16T09:02:54.763Z,80
2019-03-16T09:03:54.754Z,96
2019-03-16T09:04:54.717Z,92
2019-03-16T09:05:54.677Z,96
2019-03-16T09:06:57.648Z,132
2019-03-16T09:07:54.646Z,140
2019-03-16T09:08:54.640Z,144
2019-03-16T09:09:54.623Z,176
2019-03-16T09:10:54.580Z,136
2019-03-16T09:11:54.562Z,132
2019-03-16T09:13:02.311Z,128
2019-03-16T09:13:54.528Z,116
2019-03-16T09:14:54.502Z,140
2019-03-16T09:15:54.478Z,156
2019-03-16T09:16:54.451Z,148
2019-03-16T09:17:54.443Z,120
2019-03-16T09:18:54.409Z,100
2019-03-16T09:19:54.403Z,88
2019-03-16T09:20:54.139Z,88
2019-03-16T09:21:54.359Z,104
2019-03-16T09:22:54.082Z,104
2019-03-16T09:23:54.296Z,100
2019-03-16T09:24:54.274Z,104
2019-03-16T09:25:54.263Z,128
2019-03-16T09:26:54.263Z,136
2019-03-16T09:27:54.216Z,136
2019-03-16T09:29:18.839Z,148
2019-03-16T09:29:54.235Z,176
2019-03-16T09:30:56.477Z,196
2019-03-16T09:31:54.132Z,204
2019-03-16T09:32:54.113Z,280
2019-03-16T09:33:54.076Z,232
2019-03-16T09:34:54.085Z,328
2019-03-16T09:35:54.051Z,220
2019-03-16T09:36:54.031Z,176
2019-03-16T09:37:53.989Z,152
2019-03-16T09:38:54.016Z,148
2019-03-16T09:39:53.960Z,208
2019-03-16T09:40:53.955Z,296
2019-03-16T09:41:53.949Z,428
2019-03-16T09:42:53.896Z,492
2019-03-16T09:43:53.875Z,452
2019-03-16T09:44:53.608Z,568
2019-03-16T09:45:53.839Z,436
2019-03-16T09:46:53.805Z,464
2019-03-16T09:47:53.791Z,452
2019-03-16T09:48:53.770Z,456
2019-03-16T09:49:53.745Z,444
2019-03-16T09:50:53.730Z,456
2019-03-16T09:51:53.704Z,480
2019-03-16T09:52:53.688Z,432
2019-03-16T09:53:53.650Z,492
2019-03-16T09:54:53.401Z,488
2019-03-16T09:55:53.617Z,408
2019-03-16T09:57:05.696Z,344
2019-03-16T09:57:53.577Z,256
2019-03-16T09:58:53.552Z,276
2019-03-16T09:59:53.557Z,320
2019-03-16T10:00:53.506Z,480
2019-03-16T10:01:53.524Z,464
2019-03-16T10:02:53.265Z,428
2019-03-16T10:03:53.441Z,384
2019-03-16T10:04:53.416Z,316
2019-03-16T10:05:53.411Z,348
2019-03-16T10:06:53.373Z,352
2019-03-16T10:07:53.118Z,324
2019-03-16T10:08:53.339Z,244
2019-03-16T10:09:53.330Z,204
2019-03-16T10:10:53.055Z,256
2019-03-16T10:11:53.269Z,272
2019-03-16T10:12:53.252Z,360
2019-03-16T10:13:53.234Z,340
2019-03-16T10:14:53.216Z,296
2019-03-16T10:15:53.187Z,436
2019-03-16T10:16:53.164Z,424
2019-03-16T10:17:53.171Z,372
2019-03-16T10:18:53.199Z,372
2019-03-16T10:19:53.232Z,296
2019-03-16T10:20:53.095Z,284
2019-03-16T10:21:53.101Z,216
2019-03-16T10:22:53.042Z,184
2019-03-16T10:23:53.029Z,232
2019-03-16T10:24:53.005Z,288
2019-03-16T10:25:52.730Z,268
2019-03-16T10:26:52.968Z,316
2019-03-16T10:27:52.929Z,300
2019-03-16T10:28:52.912Z,288
2019-03-16T10:29:52.890Z,276
2019-03-16T10:30:52.862Z,268
2019-03-16T10:31:52.845Z,276
2019-03-16T10:32:52.835Z,276
2019-03-16T10:33:52.819Z,304
2019-03-16T10:34:52.778Z,308
2019-03-16T10:35:52.763Z,332
2019-03-16T10:36:52.735Z,396
2019-03-16T10:37:52.729Z,432
2019-03-16T10:38:52.696Z,396
2019-03-16T10:39:52.682Z,352
2019-03-16T10:40:52.661Z,360
2019-03-16T10:41:52.641Z,320
2019-03-16T10:42:52.610Z,224
2019-03-16T10:43:52.587Z,224
2019-03-16T10:44:52.558Z,228
2019-03-16T10:45:52.547Z,168
2019-03-16T10:46:52.531Z,164
2019-03-16T10:47:52.505Z,156
2019-03-16T10:48:52.479Z,180
2019-03-16T10:49:52.448Z,164
2019-03-16T10:50:52.462Z,156
2019-03-16T10:51:52.177Z,152
2019-03-16T10:52:52.406Z,132
2019-03-16T10:53:52.406Z,116
2019-03-16T10:54:52.365Z,136
2019-03-16T10:55:52.334Z,104
2019-03-16T10:56:52.316Z,96
2019-03-16T10:57:52.290Z,108
2019-03-16T10:59:03.450Z,148
2019-03-16T10:59:52.249Z,208
2019-03-16T11:00:51.997Z,216
2019-03-16T11:01:52.243Z,248
2019-03-16T11:02:52.201Z,264
2019-03-16T11:03:51.961Z,316
2019-03-16T11:04:52.152Z,336
2019-03-16T11:05:52.145Z,356
2019-03-16T11:06:52.125Z,340
2019-03-16T11:07:52.075Z,308
2019-03-16T11:08:52.129Z,244
2019-03-16T11:09:52.100Z,196
2019-03-16T11:10:52.062Z,224
2019-03-16T11:11:52.051Z,204
2019-03-16T11:12:52.048Z,200
2019-03-16T11:13:51.750Z,224
2019-03-16T11:14:51.960Z,192
2019-03-16T11:15:51.701Z,156
2019-03-16T11:16:51.876Z,148
2019-03-16T11:17:51.880Z,152
2019-03-16T11:18:51.885Z,156
2019-03-16T11:19:51.813Z,144
2019-03-16T11:20:51.822Z,148
2019-03-16T11:21:53.194Z,140
2019-03-16T11:22:51.795Z,172
2019-03-16T11:23:51.863Z,144
2019-03-16T11:24:51.536Z,132
2019-03-16T11:25:51.733Z,176
2019-03-16T11:26:51.693Z,140
2019-03-16T11:27:51.666Z,116
2019-03-16T11:28:51.706Z,136
2019-03-16T11:29:51.642Z,152
2019-03-16T11:30:51.694Z,156
2019-03-16T11:31:51.348Z,144
2019-03-16T11:32:51.586Z,152
2019-03-16T11:33:53.166Z,144
2019-03-16T11:34:51.586Z,128
2019-03-16T11:35:51.481Z,148
2019-03-16T11:36:51.458Z,124
2019-03-16T11:37:51.447Z,148
2019-03-16T11:38:51.407Z,140
2019-03-16T11:39:51.396Z,156
2019-03-16T11:40:51.366Z,136
2019-03-16T11:41:51.459Z,128
2019-03-16T11:42:51.321Z,136
2019-03-16T11:43:51.348Z,136
2019-03-16T11:44:51.289Z,136
2019-03-16T11:45:51.281Z,136
2019-03-16T11:46:51.248Z,132
2019-03-16T11:47:51.238Z,124
2019-03-16T11:48:51.194Z,120
2019-03-16T11:49:51.179Z,116
2019-03-16T11:50:53.662Z,112
2019-03-16T11:51:51.132Z,108
2019-03-16T11:52:51.112Z,96
2019-03-16T11:53:51.156Z,92
2019-03-16T11:54:51.077Z,96
2019-03-16T11:55:51.056Z,92
2019-03-16T11:56:51.036Z,92
2019-03-16T11:57:51.001Z,144
2019-03-16T11:58:51.006Z,204
2019-03-16T11:59:50.971Z,256
2019-03-16T12:00:50.966Z,380
2019-03-16T12:01:50.918Z,364
2019-03-16T12:02:52.822Z,324
2019-03-16T12:03:50.887Z,280
2019-03-16T12:04:50.863Z,212
2019-03-16T12:05:50.671Z,188
2019-03-16T12:06:51.056Z,152
2019-03-16T12:07:50.821Z,136
2019-03-16T12:08:50.804Z,132
2019-03-16T12:09:50.765Z,124
2019-03-16T12:10:50.727Z,124
2019-03-16T12:11:50.720Z,116
2019-03-16T12:12:50.686Z,116
2019-03-16T12:13:51.245Z,112
2019-03-16T12:14:50.646Z,116
2019-03-16T12:15:50.658Z,124
2019-03-16T12:16:50.599Z,124
2019-03-16T12:17:50.598Z,104
2019-03-16T12:18:50.558Z,128
2019-03-16T12:19:50.537Z,128
2019-03-16T12:20:50.511Z,136
2019-03-16T12:21:50.492Z,144
2019-03-16T12:22:50.494Z,144
2019-03-16T12:23:50.468Z,148
2019-03-16T12:24:50.203Z,176
2019-03-16T12:25:50.404Z,172
2019-03-16T12:26:50.400Z,164
2019-03-16T12:27:50.380Z,200
2019-03-16T12:28:50.360Z,200
2019-03-16T12:29:50.319Z,220
2019-03-16T12:30:50.311Z,212
2019-03-16T12:31:50.287Z,204
2019-03-16T12:32:50.274Z,188
2019-03-16T12:33:50.260Z,200
2019-03-16T12:34:50.224Z,212
2019-03-16T12:35:50.232Z,196
2019-03-16T12:36:50.181Z,192
2019-03-16T12:37:50.159Z,196
2019-03-16T12:38:50.158Z,224
2019-03-16T12:39:50.138Z,200
2019-03-16T12:40:50.100Z,172
2019-03-16T12:41:50.082Z,124
2019-03-16T12:42:50.043Z,116
2019-03-16T12:43:50.030Z,100
2019-03-16T12:44:50.028Z,108
2019-03-16T12:45:49.995Z,140
2019-03-16T12:46:49.963Z,172
2019-03-16T12:47:49.938Z,176
2019-03-16T12:48:49.965Z,144
2019-03-16T12:49:49.913Z,160
2019-03-16T12:50:49.881Z,148
2019-03-16T12:51:49.951Z,152
2019-03-16T12:52:49.832Z,148
2019-03-16T12:53:49.821Z,128
2019-03-16T12:54:49.832Z,128
2019-03-16T12:55:49.769Z,128
2019-03-16T12:56:49.748Z,116
2019-03-16T12:57:52.686Z,116
2019-03-16T12:58:49.714Z,132
2019-03-16T12:59:54.375Z,128
2019-03-16T13:00:49.675Z,128
2019-03-16T13:01:49.700Z,124
2019-03-16T13:02:49.673Z,128
2019-03-16T13:03:52.640Z,136
2019-03-16T13:04:49.659Z,132
2019-03-16T13:05:49.544Z,156
2019-03-16T13:06:49.537Z,152
2019-03-16T13:07:49.530Z,164
2019-03-16T13:08:49.548Z,148
2019-03-16T13:09:49.776Z,152
2019-03-16T13:10:49.455Z,148
2019-03-16T13:11:49.521Z,132
2019-03-16T13:12:49.419Z,132
2019-03-16T13:13:49.406Z,132
2019-03-16T13:14:49.371Z,124
2019-03-16T13:15:49.377Z,120
2019-03-16T13:16:49.335Z,128
2019-03-16T13:17:49.295Z,144
2019-03-16T13:18:49.287Z,152
2019-03-16T13:19:49.259Z,148
2019-03-16T13:20:49.253Z,148
2019-03-16T13:21:51.028Z,148
2019-03-16T13:22:49.399Z,160
2019-03-16T13:23:49.174Z,152
2019-03-16T13:24:49.160Z,148
2019-03-16T13:25:49.133Z,160
2019-03-16T13:26:49.104Z,184
2019-03-16T13:27:49.101Z,128
2019-03-16T13:28:49.069Z,128
2019-03-16T13:30:00.729Z,120
2019-03-16T13:30:49.020Z,116
2019-03-16T13:31:49.002Z,116
2019-03-16T13:32:48.976Z,108
2019-03-16T13:33:48.973Z,112
2019-03-16T13:34:48.971Z,144
2019-03-16T13:35:48.921Z,200
2019-03-16T13:36:48.955Z,320
2019-03-16T13:37:48.893Z,260
2019-03-16T13:38:48.853Z,200
2019-03-16T13:39:48.841Z,176
2019-03-16T13:40:48.933Z,132
2019-03-16T13:41:48.554Z,112
2019-03-16T13:42:48.792Z,108
2019-03-16T13:43:48.757Z,96
2019-03-16T13:44:48.790Z,88
2019-03-16T13:45:48.692Z,80
2019-03-16T13:46:48.689Z,84
2019-03-16T13:47:48.430Z,84
2019-03-16T13:48:48.675Z,100
2019-03-16T13:49:48.616Z,88
2019-03-16T13:50:48.900Z,80
2019-03-16T13:51:48.609Z,84
2019-03-16T13:52:48.593Z,88
2019-03-16T13:53:48.538Z,104
2019-03-16T13:54:48.734Z,88
2019-03-16T13:55:48.509Z,76
2019-03-16T13:56:48.488Z,84
2019-03-16T13:57:49.079Z,112
2019-03-16T13:58:48.443Z,140
2019-03-16T13:59:48.416Z,164
2019-03-16T14:00:49.092Z,184
2019-03-16T14:01:48.397Z,176
2019-03-16T14:02:48.361Z,204
2019-03-16T14:03:49.110Z,220
2019-03-16T14:04:48.302Z,236
2019-03-16T14:05:48.317Z,216
2019-03-16T14:06:48.792Z,172
2019-03-16T14:07:48.250Z,160
2019-03-16T14:08:47.981Z,160
2019-03-16T14:09:48.237Z,112
2019-03-16T14:10:48.260Z,104
2019-03-16T14:11:48.580Z,104
2019-03-16T14:12:48.184Z,136
2019-03-16T14:13:48.915Z,168
2019-03-16T14:14:48.113Z,172